sensor_id;sensor_type;location;lat;lon;timestamp;pressure;altitude;pressure_sealevel;temperature;humidity
48563;BME280;34981;49.104;11.396;2023-03-19T00:01:56;94791.88;;;8.08;100.00
48563;BME280;34981;49.104;11.396;2023-03-19T00:04:32;94812.22;;;8.09;100.00
48563;BME280;34981;49.104;11.396;2023-03-19T00:06:59;94825.59;;;8.09;100.00
48563;BME280;34981;49.104;11.396;2023-03-19T00:09:26;94831.75;;;8.10;100.00
48563;BME280;34981;49.104;11.396;2023-03-19T00:11:53;94827.22;;;8.05;100.00
48563;BME280;34981;49.104;11.396;2023-03-19T00:14:20;94850.28;;;8.01;100.00
48563;BME280;34981;49.104;11.396;2023-03-19T00:16:47;94866.38;;;7.96;100.00
48563;BME280;34981;49.104;11.396;2023-03-19T00:19:15;94868.81;;;7.93;100.00
48563;BME280;34981;49.104;11.396;2023-03-19T00:21:42;94861.03;;;7.96;100.00
48563;BME280;34981;49.104;11.396;2023-03-19T00:24:09;94850.06;;;7.93;100.00
48563;BME280;34981;49.104;11.396;2023-03-19T00:26:36;94836.22;;;7.86;100.00
48563;BME280;34981;49.104;11.396;2023-03-19T00:29:04;94831.72;;;7.81;100.00
48563;BME280;34981;49.104;11.396;2023-03-19T00:31:31;94833.88;;;7.79;100.00
48563;BME280;34981;49.104;11.396;2023-03-19T00:33:59;94848.31;;;7.78;100.00
48563;BME280;34981;49.104;11.396;2023-03-19T00:36:26;94858.25;;;7.72;100.00
48563;BME280;34981;49.104;11.396;2023-03-19T00:38:56;94850.03;;;7.64;100.00
48563;BME280;34981;49.104;11.396;2023-03-19T00:41:23;94853.00;;;7.57;100.00
48563;BME280;34981;49.104;11.396;2023-03-19T00:43:51;94866.34;;;7.62;100.00
48563;BME280;34981;49.104;11.396;2023-03-19T00:46:18;94889.59;;;7.62;100.00
48563;BME280;34981;49.104;11.396;2023-03-19T00:48:48;94905.91;;;7.65;100.00
48563;BME280;34981;49.104;11.396;2023-03-19T00:51:16;94921.16;;;7.65;100.00
48563;BME280;34981;49.104;11.396;2023-03-19T00:53:44;94929.75;;;7.57;100.00
48563;BME280;34981;49.104;11.396;2023-03-19T00:56:12;94928.47;;;7.49;100.00
48563;BME280;34981;49.104;11.396;2023-03-19T00:58:39;94925.81;;;7.44;100.00
48563;BME280;34981;49.104;11.396;2023-03-19T01:01:10;94947.44;;;7.48;100.00
48563;BME280;34981;49.104;11.396;2023-03-19T01:03:38;94963.75;;;7.51;100.00
48563;BME280;34981;49.104;11.396;2023-03-19T01:06:06;94956.53;;;7.47;100.00
48563;BME280;34981;49.104;11.396;2023-03-19T01:08:33;94961.09;;;7.46;100.00
48563;BME280;34981;49.104;11.396;2023-03-19T01:11:04;94971.78;;;7.46;100.00
48563;BME280;34981;49.104;11.396;2023-03-19T01:13:31;94971.28;;;7.44;100.00
48563;BME280;34981;49.104;11.396;2023-03-19T01:15:58;94994.00;;;7.41;100.00
48563;BME280;34981;49.104;11.396;2023-03-19T01:18:26;94998.00;;;7.44;100.00
48563;BME280;34981;49.104;11.396;2023-03-19T01:20:53;95017.00;;;7.42;100.00
48563;BME280;34981;49.104;11.396;2023-03-19T01:23:20;95013.53;;;7.42;100.00
48563;BME280;34981;49.104;11.396;2023-03-19T01:25:47;95018.06;;;7.41;100.00
48563;BME280;34981;49.104;11.396;2023-03-19T01:28:14;95018.88;;;7.42;100.00
48563;BME280;34981;49.104;11.396;2023-03-19T01:30:42;95016.47;;;7.35;100.00
48563;BME280;34981;49.104;11.396;2023-03-19T01:33:13;95025.03;;;7.32;100.00
48563;BME280;34981;49.104;11.396;2023-03-19T01:35:51;95042.69;;;7.33;100.00
48563;BME280;34981;49.104;11.396;2023-03-19T01:38:21;95037.09;;;7.30;100.00
48563;BME280;34981;49.104;11.396;2023-03-19T01:40:49;95047.78;;;7.30;100.00
48563;BME280;34981;49.104;11.396;2023-03-19T01:43:17;95054.44;;;7.32;100.00
48563;BME280;34981;49.104;11.396;2023-03-19T01:46:04;95072.91;;;7.29;100.00
48563;BME280;34981;49.104;11.396;2023-03-19T01:48:52;95089.75;;;7.24;100.00
48563;BME280;34981;49.104;11.396;2023-03-19T01:51:22;95103.91;;;7.25;100.00
48563;BME280;34981;49.104;11.396;2023-03-19T01:54:10;95115.41;;;7.25;100.00
48563;BME280;34981;49.104;11.396;2023-03-19T01:56:54;95103.91;;;7.25;100.00
48563;BME280;34981;49.104;11.396;2023-03-19T01:59:53;95107.38;;;7.25;100.00
48563;BME280;34981;49.104;11.396;2023-03-19T02:04:57;95130.63;;;7.25;100.00
48563;BME280;34981;49.104;11.396;2023-03-19T02:07:27;95132.81;;;7.23;100.00
48563;BME280;34981;49.104;11.396;2023-03-19T02:09:55;95136.53;;;7.22;100.00
48563;BME280;34981;49.104;11.396;2023-03-19T02:12:22;95138.16;;;7.23;100.00
48563;BME280;34981;49.104;11.396;2023-03-19T02:14:50;95161.91;;;7.24;100.00
48563;BME280;34981;49.104;11.396;2023-03-19T02:17:17;95144.53;;;7.12;100.00
48563;BME280;34981;49.104;11.396;2023-03-19T02:19:52;95145.34;;;7.07;100.00
48563;BME280;34981;49.104;11.396;2023-03-19T02:22:24;95145.06;;;7.03;100.00
48563;BME280;34981;49.104;11.396;2023-03-19T02:27:24;95160.03;;;7.04;100.00
48563;BME280;34981;49.104;11.396;2023-03-19T02:29:51;95154.72;;;6.99;100.00
48563;BME280;34981;49.104;11.396;2023-03-19T02:32:19;95181.16;;;7.01;100.00
48563;BME280;34981;49.104;11.396;2023-03-19T02:34:47;95184.91;;;7.00;100.00
48563;BME280;34981;49.104;11.396;2023-03-19T02:37:25;95174.47;;;6.93;100.00
48563;BME280;34981;49.104;11.396;2023-03-19T02:40:05;95176.06;;;6.94;100.00
48563;BME280;34981;49.104;11.396;2023-03-19T02:42:33;95179.53;;;6.95;100.00
48563;BME280;34981;49.104;11.396;2023-03-19T02:45:01;95194.25;;;6.97;100.00
48563;BME280;34981;49.104;11.396;2023-03-19T02:47:28;95191.81;;;6.96;100.00
48563;BME280;34981;49.104;11.396;2023-03-19T02:49:55;95188.31;;;6.80;100.00
48563;BME280;34981;49.104;11.396;2023-03-19T02:52:22;95211.00;;;6.73;100.00
48563;BME280;34981;49.104;11.396;2023-03-19T02:57:39;95221.47;;;6.79;100.00
48563;BME280;34981;49.104;11.396;2023-03-19T03:00:07;95223.84;;;6.76;100.00
48563;BME280;34981;49.104;11.396;2023-03-19T03:02:35;95220.88;;;6.72;100.00
48563;BME280;34981;49.104;11.396;2023-03-19T03:05:02;95224.91;;;6.70;100.00
48563;BME280;34981;49.104;11.396;2023-03-19T03:07:29;95230.50;;;6.68;100.00
48563;BME280;34981;49.104;11.396;2023-03-19T03:09:57;95231.31;;;6.63;100.00
48563;BME280;34981;49.104;11.396;2023-03-19T03:12:24;95246.53;;;6.63;100.00
48563;BME280;34981;49.104;11.396;2023-03-19T03:14:52;95264.91;;;6.59;100.00
48563;BME280;34981;49.104;11.396;2023-03-19T03:17:19;95270.50;;;6.58;100.00
48563;BME280;34981;49.104;11.396;2023-03-19T03:19:46;95277.16;;;6.50;100.00
48563;BME280;34981;49.104;11.396;2023-03-19T03:22:14;95292.91;;;6.52;100.00
48563;BME280;34981;49.104;11.396;2023-03-19T03:24:41;95302.78;;;6.51;100.00
48563;BME280;34981;49.104;11.396;2023-03-19T03:27:08;95325.53;;;6.59;100.00
48563;BME280;34981;49.104;11.396;2023-03-19T03:29:35;95326.59;;;6.58;100.00
48563;BME280;34981;49.104;11.396;2023-03-19T03:32:02;95337.28;;;6.58;100.00
48563;BME280;34981;49.104;11.396;2023-03-19T03:34:30;95329.78;;;6.55;100.00
48563;BME280;34981;49.104;11.396;2023-03-19T03:36:57;95340.47;;;6.55;100.00
48563;BME280;34981;49.104;11.396;2023-03-19T03:39:24;95349.84;;;6.57;100.00
48563;BME280;34981;49.104;11.396;2023-03-19T03:41:51;95365.59;;;6.59;100.00
48563;BME280;34981;49.104;11.396;2023-03-19T03:44:18;95367.19;;;6.60;100.00
48563;BME280;34981;49.104;11.396;2023-03-19T03:46:45;95359.16;;;6.55;100.00
48563;BME280;34981;49.104;11.396;2023-03-19T03:49:13;95376.25;;;6.54;100.00
48563;BME280;34981;49.104;11.396;2023-03-19T03:51:40;95385.88;;;6.55;100.00
48563;BME280;34981;49.104;11.396;2023-03-19T03:54:08;95394.94;;;6.54;100.00
48563;BME280;34981;49.104;11.396;2023-03-19T03:56:35;95413.38;;;6.55;100.00
48563;BME280;34981;49.104;11.396;2023-03-19T03:59:03;95414.94;;;6.51;100.00
48563;BME280;34981;49.104;11.396;2023-03-19T04:01:30;95417.66;;;6.56;100.00
48563;BME280;34981;49.104;11.396;2023-03-19T04:03:58;95430.72;;;6.58;100.00
48563;BME280;34981;49.104;11.396;2023-03-19T04:06:25;95436.31;;;6.51;100.00
48563;BME280;34981;49.104;11.396;2023-03-19T04:09:11;95440.03;;;6.50;100.00
48563;BME280;34981;49.104;11.396;2023-03-19T04:11:39;95456.34;;;6.54;100.00
48563;BME280;34981;49.104;11.396;2023-03-19T04:14:07;95455.19;;;6.40;100.00
48563;BME280;34981;49.104;11.396;2023-03-19T04:16:36;95470.19;;;6.46;100.00
48563;BME280;34981;49.104;11.396;2023-03-19T04:19:04;95469.69;;;6.49;100.00
48563;BME280;34981;49.104;11.396;2023-03-19T04:21:33;95487.31;;;6.50;100.00
48563;BME280;34981;49.104;11.396;2023-03-19T04:24:00;95500.09;;;6.48;100.00
48563;BME280;34981;49.104;11.396;2023-03-19T04:26:28;95511.38;;;6.55;100.00
48563;BME280;34981;49.104;11.396;2023-03-19T04:28:56;95493.44;;;6.50;100.00
48563;BME280;34981;49.104;11.396;2023-03-19T04:31:23;95500.91;;;6.48;100.00
48563;BME280;34981;49.104;11.396;2023-03-19T04:33:51;95484.00;;;6.38;100.00
48563;BME280;34981;49.104;11.396;2023-03-19T04:36:18;95483.50;;;6.41;100.00
48563;BME280;34981;49.104;11.396;2023-03-19T04:38:46;95494.66;;;6.38;100.00
48563;BME280;34981;49.104;11.396;2023-03-19T04:41:13;95498.16;;;6.38;100.00
48563;BME280;34981;49.104;11.396;2023-03-19T04:43:57;95511.81;;;6.42;100.00
48563;BME280;34981;49.104;11.396;2023-03-19T04:46:25;95514.94;;;6.34;100.00
48563;BME280;34981;49.104;11.396;2023-03-19T04:48:53;95521.88;;;6.35;100.00
48563;BME280;34981;49.104;11.396;2023-03-19T04:51:20;95531.44;;;6.31;100.00
48563;BME280;34981;49.104;11.396;2023-03-19T04:53:47;95544.59;;;6.37;100.00
48563;BME280;34981;49.104;11.396;2023-03-19T04:56:15;95565.44;;;6.40;100.00
48563;BME280;34981;49.104;11.396;2023-03-19T04:58:44;95557.69;;;6.39;100.00
48563;BME280;34981;49.104;11.396;2023-03-19T05:01:11;95555.50;;;6.36;100.00
48563;BME280;34981;49.104;11.396;2023-03-19T05:03:56;95557.13;;;6.37;100.00
48563;BME280;34981;49.104;11.396;2023-03-19T05:06:24;95552.81;;;6.31;100.00
48563;BME280;34981;49.104;11.396;2023-03-19T05:08:53;95561.81;;;6.24;100.00
48563;BME280;34981;49.104;11.396;2023-03-19T05:11:21;95597.13;;;6.32;100.00
48563;BME280;34981;49.104;11.396;2023-03-19T05:13:59;95592.09;;;6.35;100.00
48563;BME280;34981;49.104;11.396;2023-03-19T05:16:33;95602.50;;;6.37;100.00
48563;BME280;34981;49.104;11.396;2023-03-19T05:19:01;95606.19;;;6.31;100.00
48563;BME280;34981;49.104;11.396;2023-03-19T05:21:30;95624.31;;;6.29;100.00
48563;BME280;34981;49.104;11.396;2023-03-19T05:23:57;95640.41;;;6.34;100.00
48563;BME280;34981;49.104;11.396;2023-03-19T05:26:25;95644.69;;;6.35;100.00
48563;BME280;34981;49.104;11.396;2023-03-19T05:29:14;95659.69;;;6.41;100.00
48563;BME280;34981;49.104;11.396;2023-03-19T05:32:01;95667.19;;;6.44;100.00
48563;BME280;34981;49.104;11.396;2023-03-19T05:34:30;95679.25;;;6.46;100.00
48563;BME280;34981;49.104;11.396;2023-03-19T05:36:57;95676.81;;;6.45;100.00
48563;BME280;34981;49.104;11.396;2023-03-19T05:39:24;95680.53;;;6.44;100.00
48563;BME280;34981;49.104;11.396;2023-03-19T05:41:53;95696.56;;;6.44;100.00
48563;BME280;34981;49.104;11.396;2023-03-19T05:44:25;95711.78;;;6.43;100.00
48563;BME280;34981;49.104;11.396;2023-03-19T05:47:00;95725.81;;;6.34;100.00
48563;BME280;34981;49.104;11.396;2023-03-19T05:49:31;95764.81;;;6.35;100.00
48563;BME280;34981;49.104;11.396;2023-03-19T05:51:58;95787.03;;;6.40;100.00
48563;BME280;34981;49.104;11.396;2023-03-19T05:54:25;95800.69;;;6.44;100.00
48563;BME280;34981;49.104;11.396;2023-03-19T05:57:00;95803.38;;;6.44;100.00
48563;BME280;34981;49.104;11.396;2023-03-19T05:59:41;95794.53;;;6.43;100.00
48563;BME280;34981;49.104;11.396;2023-03-19T06:02:41;95815.28;;;6.58;100.00
48563;BME280;34981;49.104;11.396;2023-03-19T06:05:31;95815.28;;;6.58;100.00
48563;BME280;34981;49.104;11.396;2023-03-19T06:08:06;95832.94;;;6.59;100.00
48563;BME280;34981;49.104;11.396;2023-03-19T06:10:49;95825.75;;;6.59;100.00
48563;BME280;34981;49.104;11.396;2023-03-19T06:13:16;95845.25;;;6.60;100.00
48563;BME280;34981;49.104;11.396;2023-03-19T06:15:52;95865.63;;;6.66;100.00
48563;BME280;34981;49.104;11.396;2023-03-19T06:18:23;95874.34;;;6.78;100.00
48563;BME280;34981;49.104;11.396;2023-03-19T06:20:50;95886.78;;;6.89;100.00
48563;BME280;34981;49.104;11.396;2023-03-19T06:23:18;95893.94;;;7.06;100.00
48563;BME280;34981;49.104;11.396;2023-03-19T06:25:45;95889.13;;;7.29;100.00
48563;BME280;34981;49.104;11.396;2023-03-19T06:28:13;95864.28;;;7.29;100.00
48563;BME280;34981;49.104;11.396;2023-03-19T06:30:43;95875.63;;;7.41;100.00
48563;BME280;34981;49.104;11.396;2023-03-19T06:33:33;95866.69;;;7.57;100.00
48563;BME280;34981;49.104;11.396;2023-03-19T06:36:01;95866.84;;;7.72;100.00
48563;BME280;34981;49.104;11.396;2023-03-19T06:38:31;95861.91;;;7.91;100.00
48563;BME280;34981;49.104;11.396;2023-03-19T06:40:58;95826.25;;;7.80;100.00
48563;BME280;34981;49.104;11.396;2023-03-19T06:43:25;95804.13;;;7.58;100.00
48563;BME280;34981;49.104;11.396;2023-03-19T06:45:52;95828.94;;;7.80;100.00
48563;BME280;34981;49.104;11.396;2023-03-19T06:48:19;95822.34;;;7.93;100.00
48563;BME280;34981;49.104;11.396;2023-03-19T06:50:47;95794.44;;;7.89;100.00
48563;BME280;34981;49.104;11.396;2023-03-19T06:53:14;95803.28;;;7.90;100.00
48563;BME280;34981;49.104;11.396;2023-03-19T06:55:41;95798.81;;;8.00;100.00
48563;BME280;34981;49.104;11.396;2023-03-19T06:58:11;95802.59;;;8.04;100.00
48563;BME280;34981;49.104;11.396;2023-03-19T07:00:38;95807.19;;;8.09;100.00
48563;BME280;34981;49.104;11.396;2023-03-19T07:03:05;95828.38;;;8.15;100.00
48563;BME280;34981;49.104;11.396;2023-03-19T07:05:33;95821.75;;;8.23;100.00
48563;BME280;34981;49.104;11.396;2023-03-19T07:08:00;95818.50;;;8.16;100.00
48563;BME280;34981;49.104;11.396;2023-03-19T07:10:27;95837.50;;;8.19;100.00
48563;BME280;34981;49.104;11.396;2023-03-19T07:12:55;95824.41;;;8.18;100.00
48563;BME280;34981;49.104;11.396;2023-03-19T07:15:22;95835.16;;;8.28;100.00
48563;BME280;34981;49.104;11.396;2023-03-19T07:17:49;95833.63;;;8.32;100.00
48563;BME280;34981;49.104;11.396;2023-03-19T07:20:16;95837.41;;;8.41;100.00
48563;BME280;34981;49.104;11.396;2023-03-19T07:22:44;95828.91;;;8.49;100.00
48563;BME280;34981;49.104;11.396;2023-03-19T07:25:11;95817.06;;;8.40;100.00
48563;BME280;34981;49.104;11.396;2023-03-19T07:27:38;95828.38;;;8.47;100.00
48563;BME280;34981;49.104;11.396;2023-03-19T07:30:05;95834.25;;;8.49;100.00
48563;BME280;34981;49.104;11.396;2023-03-19T07:32:33;95849.03;;;8.57;100.00
48563;BME280;34981;49.104;11.396;2023-03-19T07:35:00;95859.25;;;8.60;100.00
48563;BME280;34981;49.104;11.396;2023-03-19T07:37:28;95876.63;;;8.57;100.00
48563;BME280;34981;49.104;11.396;2023-03-19T07:39:55;95910.97;;;8.61;100.00
48563;BME280;34981;49.104;11.396;2023-03-19T07:42:22;95940.72;;;8.64;100.00
48563;BME280;34981;49.104;11.396;2023-03-19T07:44:49;95960.31;;;8.70;100.00
48563;BME280;34981;49.104;11.396;2023-03-19T07:47:16;95998.41;;;8.72;100.00
48563;BME280;34981;49.104;11.396;2023-03-19T07:49:58;96033.88;;;8.84;100.00
48563;BME280;34981;49.104;11.396;2023-03-19T07:52:25;96062.56;;;8.83;100.00
48563;BME280;34981;49.104;11.396;2023-03-19T07:54:52;96093.97;;;8.93;100.00
48563;BME280;34981;49.104;11.396;2023-03-19T07:57:20;96132.09;;;8.95;100.00
48563;BME280;34981;49.104;11.396;2023-03-19T07:59:47;96153.53;;;8.95;100.00
48563;BME280;34981;49.104;11.396;2023-03-19T08:02:14;96173.09;;;8.95;100.00
48563;BME280;34981;49.104;11.396;2023-03-19T08:04:42;96194.31;;;8.97;100.00
48563;BME280;34981;49.104;11.396;2023-03-19T08:07:09;96221.66;;;8.99;100.00
48563;BME280;34981;49.104;11.396;2023-03-19T08:09:39;96244.44;;;8.96;100.00
48563;BME280;34981;49.104;11.396;2023-03-19T08:12:07;96272.06;;;8.97;100.00
48563;BME280;34981;49.104;11.396;2023-03-19T08:14:34;96282.78;;;8.97;100.00
48563;BME280;34981;49.104;11.396;2023-03-19T08:17:02;96301.63;;;9.02;100.00
48563;BME280;34981;49.104;11.396;2023-03-19T08:19:29;96338.66;;;9.05;100.00
48563;BME280;34981;49.104;11.396;2023-03-19T08:21:56;96372.28;;;9.13;100.00
48563;BME280;34981;49.104;11.396;2023-03-19T08:24:23;96399.72;;;9.20;100.00
48563;BME280;34981;49.104;11.396;2023-03-19T08:26:50;96416.25;;;9.12;100.00
48563;BME280;34981;49.104;11.396;2023-03-19T08:29:18;96446.56;;;9.12;100.00
48563;BME280;34981;49.104;11.396;2023-03-19T08:31:45;96499.69;;;9.15;100.00
48563;BME280;34981;49.104;11.396;2023-03-19T08:34:15;96540.97;;;9.14;100.00
48563;BME280;34981;49.104;11.396;2023-03-19T08:36:46;96561.09;;;9.12;100.00
48563;BME280;34981;49.104;11.396;2023-03-19T08:39:14;96595.19;;;9.16;100.00
48563;BME280;34981;49.104;11.396;2023-03-19T08:41:41;96601.63;;;9.15;100.00
48563;BME280;34981;49.104;11.396;2023-03-19T08:44:08;96632.19;;;9.14;100.00
48563;BME280;34981;49.104;11.396;2023-03-19T08:46:35;96652.50;;;9.10;100.00
48563;BME280;34981;49.104;11.396;2023-03-19T08:49:02;96657.28;;;9.08;100.00
48563;BME280;34981;49.104;11.396;2023-03-19T08:51:30;96668.09;;;9.13;100.00
48563;BME280;34981;49.104;11.396;2023-03-19T08:53:57;96671.53;;;9.09;100.00
48563;BME280;34981;49.104;11.396;2023-03-19T08:56:24;96687.78;;;9.02;100.00
48563;BME280;34981;49.104;11.396;2023-03-19T08:58:52;96708.63;;;9.00;100.00
48563;BME280;34981;49.104;11.396;2023-03-19T09:01:19;96730.44;;;9.04;100.00
48563;BME280;34981;49.104;11.396;2023-03-19T09:03:46;96748.63;;;9.02;100.00
48563;BME280;34981;49.104;11.396;2023-03-19T09:06:13;96761.22;;;9.01;100.00
48563;BME280;34981;49.104;11.396;2023-03-19T09:08:41;96777.22;;;8.96;100.00
48563;BME280;34981;49.104;11.396;2023-03-19T09:11:08;96792.16;;;8.92;100.00
48563;BME280;34981;49.104;11.396;2023-03-19T09:13:36;96815.59;;;8.85;100.00
48563;BME280;34981;49.104;11.396;2023-03-19T09:16:04;96849.41;;;8.86;100.00
48563;BME280;34981;49.104;11.396;2023-03-19T09:18:32;96891.03;;;8.88;100.00
48563;BME280;34981;49.104;11.396;2023-03-19T09:20:59;96922.63;;;8.86;100.00
48563;BME280;34981;49.104;11.396;2023-03-19T09:23:27;96938.38;;;8.83;100.00
48563;BME280;34981;49.104;11.396;2023-03-19T09:25:54;96963.91;;;8.74;100.00
48563;BME280;34981;49.104;11.396;2023-03-19T09:28:21;96999.34;;;8.76;100.00
48563;BME280;34981;49.104;11.396;2023-03-19T09:30:49;97014.94;;;8.79;100.00
48563;BME280;34981;49.104;11.396;2023-03-19T09:33:17;97038.97;;;8.74;100.00
48563;BME280;34981;49.104;11.396;2023-03-19T09:35:49;97042.91;;;8.71;100.00
48563;BME280;34981;49.104;11.396;2023-03-19T09:38:19;97060.03;;;8.70;100.00
48563;BME280;34981;49.104;11.396;2023-03-19T09:40:47;97081.59;;;8.64;100.00
48563;BME280;34981;49.104;11.396;2023-03-19T09:45:43;97131.13;;;8.61;100.00
48563;BME280;34981;49.104;11.396;2023-03-19T09:48:12;97152.41;;;8.56;100.00
48563;BME280;34981;49.104;11.396;2023-03-19T09:50:40;97146.94;;;8.51;100.00
48563;BME280;34981;49.104;11.396;2023-03-19T09:53:11;97186.31;;;8.50;100.00
48563;BME280;34981;49.104;11.396;2023-03-19T09:55:44;97223.09;;;8.43;100.00
48563;BME280;34981;49.104;11.396;2023-03-19T09:58:14;97239.91;;;8.50;100.00
48563;BME280;34981;49.104;11.396;2023-03-19T10:00:43;97237.97;;;8.57;100.00
48563;BME280;34981;49.104;11.396;2023-03-19T10:13:55;97285.31;;;8.64;100.00
48563;BME280;34981;49.104;11.396;2023-03-19T10:16:26;97298.03;;;8.68;100.00
48563;BME280;34981;49.104;11.396;2023-03-19T10:18:57;97319.84;;;8.72;100.00
48563;BME280;34981;49.104;11.396;2023-03-19T10:21:30;97328.28;;;8.75;100.00
48563;BME280;34981;49.104;11.396;2023-03-19T10:26:46;97367.59;;;8.81;100.00
48563;BME280;34981;49.104;11.396;2023-03-19T10:29:15;97389.19;;;8.86;100.00
48563;BME280;34981;49.104;11.396;2023-03-19T10:37:04;97460.94;;;9.09;100.00
48563;BME280;34981;49.104;11.396;2023-03-19T10:39:33;97479.00;;;9.20;100.00
48563;BME280;34981;49.104;11.396;2023-03-19T10:44:49;97488.22;;;9.24;100.00
48563;BME280;34981;49.104;11.396;2023-03-19T10:47:18;97505.47;;;9.35;100.00
48563;BME280;34981;49.104;11.396;2023-03-19T10:49:48;97504.38;;;9.36;100.00
48563;BME280;34981;49.104;11.396;2023-03-19T10:54:43;97531.31;;;9.48;100.00
48563;BME280;34981;49.104;11.396;2023-03-19T10:57:25;97529.00;;;9.51;100.00
48563;BME280;34981;49.104;11.396;2023-03-19T10:59:52;97544.59;;;9.61;100.00
48563;BME280;34981;49.104;11.396;2023-03-19T11:02:20;97554.41;;;9.67;100.00
48563;BME280;34981;49.104;11.396;2023-03-19T11:05:00;97566.38;;;9.71;100.00
48563;BME280;34981;49.104;11.396;2023-03-19T11:07:31;97564.25;;;9.73;100.00
48563;BME280;34981;49.104;11.396;2023-03-19T11:09:59;97573.59;;;9.70;100.00
48563;BME280;34981;49.104;11.396;2023-03-19T11:12:29;97586.06;;;9.83;100.00
48563;BME280;34981;49.104;11.396;2023-03-19T11:14:57;97602.00;;;9.96;100.00
48563;BME280;34981;49.104;11.396;2023-03-19T11:17:36;97633.50;;;10.07;100.00
48563;BME280;34981;49.104;11.396;2023-03-19T11:20:17;97625.06;;;10.04;100.00
48563;BME280;34981;49.104;11.396;2023-03-19T11:22:45;97632.38;;;10.15;100.00
48563;BME280;34981;49.104;11.396;2023-03-19T11:25:14;97639.09;;;10.24;100.00
48563;BME280;34981;49.104;11.396;2023-03-19T11:27:56;97632.59;;;10.32;100.00
48563;BME280;34981;49.104;11.396;2023-03-19T11:30:23;97662.97;;;10.50;100.00
48563;BME280;34981;49.104;11.396;2023-03-19T11:38:22;97669.59;;;10.66;100.00
48563;BME280;34981;49.104;11.396;2023-03-19T11:41:03;97643.44;;;10.55;100.00
48563;BME280;34981;49.104;11.396;2023-03-19T11:43:37;97655.66;;;10.69;100.00
48563;BME280;34981;49.104;11.396;2023-03-19T11:48:36;97635.28;;;10.62;100.00
48563;BME280;34981;49.104;11.396;2023-03-19T11:58:50;97614.06;;;10.83;100.00
48563;BME280;34981;49.104;11.396;2023-03-19T12:01:30;97597.59;;;10.80;100.00
48563;BME280;34981;49.104;11.396;2023-03-19T12:04:09;97628.72;;;10.99;100.00
48563;BME280;34981;49.104;11.396;2023-03-19T12:06:49;97656.41;;;11.29;100.00
48563;BME280;34981;49.104;11.396;2023-03-19T12:12:09;97632.50;;;11.21;100.00
48563;BME280;34981;49.104;11.396;2023-03-19T12:17:27;97623.00;;;10.96;100.00
48563;BME280;34981;49.104;11.396;2023-03-19T12:20:05;97643.00;;;11.11;100.00
48563;BME280;34981;49.104;11.396;2023-03-19T12:25:34;97662.00;;;11.28;100.00
48563;BME280;34981;49.104;11.396;2023-03-19T12:35:32;97617.88;;;11.29;100.00
48563;BME280;34981;49.104;11.396;2023-03-19T12:38:02;97618.94;;;11.16;100.00
48563;BME280;34981;49.104;11.396;2023-03-19T12:40:34;97659.19;;;11.35;100.00
48563;BME280;34981;49.104;11.396;2023-03-19T12:43:13;97665.66;;;11.45;100.00
48563;BME280;34981;49.104;11.396;2023-03-19T12:45:43;97633.81;;;11.30;100.00
48563;BME280;34981;49.104;11.396;2023-03-19T12:48:17;97663.22;;;11.67;100.00
48563;BME280;34981;49.104;11.396;2023-03-19T12:50:49;97646.22;;;11.66;100.00
48563;BME280;34981;49.104;11.396;2023-03-19T12:53:24;97647.38;;;11.70;100.00
48563;BME280;34981;49.104;11.396;2023-03-19T12:55:56;97612.38;;;11.59;100.00
48563;BME280;34981;49.104;11.396;2023-03-19T12:58:37;97619.53;;;11.77;100.00
48563;BME280;34981;49.104;11.396;2023-03-19T13:01:10;97601.94;;;11.62;100.00
48563;BME280;34981;49.104;11.396;2023-03-19T13:03:47;97586.72;;;11.56;100.00
48563;BME280;34981;49.104;11.396;2023-03-19T13:06:20;97566.84;;;11.46;100.00
48563;BME280;34981;49.104;11.396;2023-03-19T13:11:30;97552.91;;;11.49;100.00
48563;BME280;34981;49.104;11.396;2023-03-19T13:14:00;97534.53;;;11.46;100.00
48563;BME280;34981;49.104;11.396;2023-03-19T13:16:42;97509.63;;;11.39;100.00
48563;BME280;34981;49.104;11.396;2023-03-19T13:19:25;97525.84;;;11.55;100.00
48563;BME280;34981;49.104;11.396;2023-03-19T13:21:55;97516.69;;;11.56;100.00
48563;BME280;34981;49.104;11.396;2023-03-19T13:24:25;97500.53;;;11.56;100.00
48563;BME280;34981;49.104;11.396;2023-03-19T13:26:54;97490.13;;;11.60;100.00
48563;BME280;34981;49.104;11.396;2023-03-19T13:29:23;97469.41;;;11.60;100.00
48563;BME280;34981;49.104;11.396;2023-03-19T13:31:50;97453.72;;;11.57;100.00
48563;BME280;34981;49.104;11.396;2023-03-19T13:34:28;97430.19;;;11.53;100.00
48563;BME280;34981;49.104;11.396;2023-03-19T13:39:36;97413.53;;;11.56;100.00
48563;BME280;34981;49.104;11.396;2023-03-19T13:44:39;97389.81;;;11.41;100.00
48563;BME280;34981;49.104;11.396;2023-03-19T13:47:41;97390.13;;;11.56;100.00
48563;BME280;34981;49.104;11.396;2023-03-19T13:52:50;97380.16;;;11.57;100.00
48563;BME280;34981;49.104;11.396;2023-03-19T13:57:52;97398.22;;;11.85;100.00
48563;BME280;34981;49.104;11.396;2023-03-19T14:05:47;97362.28;;;11.79;100.00
48563;BME280;34981;49.104;11.396;2023-03-19T14:08:17;97353.63;;;11.77;100.00
48563;BME280;34981;49.104;11.396;2023-03-19T14:10:46;97345.53;;;11.77;100.00
48563;BME280;34981;49.104;11.396;2023-03-19T14:13:26;97322.81;;;11.73;100.00
48563;BME280;34981;49.104;11.396;2023-03-19T14:15:54;97311.22;;;11.73;100.00
48563;BME280;34981;49.104;11.396;2023-03-19T14:18:27;97333.72;;;11.95;100.00
48563;BME280;34981;49.104;11.396;2023-03-19T14:23:26;97287.91;;;11.78;100.00
48563;BME280;34981;49.104;11.396;2023-03-19T14:26:24;97275.25;;;11.79;100.00
48563;BME280;34981;49.104;11.396;2023-03-19T14:29:01;97265.72;;;11.88;100.00
48563;BME280;34981;49.104;11.396;2023-03-19T14:34:03;97261.44;;;11.92;100.00